createdAt,value
2022-11-27T00:01:18.493Z,81.81
2022-11-27T00:03:45.248Z,80.90
2022-11-27T00:06:13.595Z,80.10
2022-11-27T00:08:40.065Z,80.03
2022-11-27T00:11:15.536Z,80.18
2022-11-27T00:13:42.221Z,81.03
2022-11-27T00:16:09.377Z,80.96
2022-11-27T00:18:36.503Z,81.31
2022-11-27T00:21:11.178Z,80.30
2022-11-27T00:23:37.697Z,80.79
2022-11-27T00:26:05.309Z,80.60
2022-11-27T00:28:31.936Z,80.20
2022-11-27T00:31:03.486Z,82.72
2022-11-27T00:33:30.189Z,82.36
2022-11-27T00:35:56.722Z,82.12
2022-11-27T00:38:23.289Z,82.31
2022-11-27T00:40:49.826Z,80.59
2022-11-27T00:43:16.471Z,81.37
2022-11-27T00:45:42.965Z,82.04
2022-11-27T00:48:09.568Z,81.07
2022-11-27T00:50:36.056Z,80.95
2022-11-27T00:53:03.975Z,80.30
2022-11-27T00:55:30.458Z,79.99
2022-11-27T00:57:56.935Z,79.15
2022-11-27T01:00:24.696Z,78.01
2022-11-27T01:02:51.211Z,80.55
2022-11-27T01:05:17.842Z,82.34
2022-11-27T01:07:44.389Z,82.78
2022-11-27T01:10:11.425Z,81.86
2022-11-27T01:12:38.034Z,83.11
2022-11-27T01:15:04.899Z,81.53
2022-11-27T01:17:31.386Z,80.49
2022-11-27T01:19:57.938Z,80.16
2022-11-27T01:22:24.432Z,79.30
2022-11-27T01:24:50.896Z,81.06
2022-11-27T01:27:17.398Z,81.38
2022-11-27T01:29:45.254Z,81.12
2022-11-27T01:32:11.743Z,80.18
2022-11-27T01:34:38.746Z,80.09
2022-11-27T01:37:05.438Z,81.52
2022-11-27T01:39:31.973Z,80.93
2022-11-27T01:41:58.463Z,79.64
2022-11-27T01:44:24.858Z,78.69
2022-11-27T01:47:04.417Z,77.79
2022-11-27T01:49:39.077Z,76.60
2022-11-27T01:52:11.138Z,76.04
2022-11-27T01:54:42.414Z,76.10
2022-11-27T01:57:18.328Z,76.10
2022-11-27T01:59:46.486Z,75.40
2022-11-27T02:02:13.544Z,75.04
2022-11-27T02:04:40.272Z,75.00
2022-11-27T02:07:07.043Z,75.25
2022-11-27T02:09:33.801Z,75.21
2022-11-27T02:12:49.553Z,76.98
2022-11-27T02:15:34.571Z,76.05
2022-11-27T02:18:09.830Z,75.40
2022-11-27T02:20:39.259Z,74.73
2022-11-27T02:23:43.375Z,74.54
2022-11-27T02:26:56.983Z,74.31
2022-11-27T02:29:24.031Z,74.23
2022-11-27T02:32:15.547Z,74.81
2022-11-27T02:35:18.276Z,75.49
2022-11-27T02:37:50.795Z,74.86
2022-11-27T02:40:25.280Z,75.85
2022-11-27T02:42:59.827Z,75.61
2022-11-27T02:45:31.833Z,75.51
2022-11-27T02:47:59.099Z,75.15
2022-11-27T02:50:27.143Z,74.95
2022-11-27T02:52:58.346Z,76.35
2022-11-27T02:55:27.143Z,76.03
2022-11-27T02:57:56.735Z,75.51
2022-11-27T03:00:23.331Z,74.92
2022-11-27T03:02:56.089Z,74.37
2022-11-27T03:05:23.734Z,72.60
2022-11-27T03:07:56.154Z,72.68
2022-11-27T03:11:05.798Z,71.30
2022-11-27T03:13:35.537Z,72.62
2022-11-27T03:16:13.118Z,72.96
2022-11-27T03:18:43.459Z,72.42
2022-11-27T03:21:31.709Z,72.38
2022-11-27T03:23:58.550Z,72.51
2022-11-27T03:26:25.827Z,73.24
2022-11-27T03:28:53.411Z,72.79
2022-11-27T03:31:20.529Z,73.28
2022-11-27T03:33:47.372Z,73.50
2022-11-27T03:36:19.156Z,74.51
2022-11-27T03:38:47.446Z,73.71
2022-11-27T03:41:16.951Z,73.28
2022-11-27T03:44:00.288Z,73.47
2022-11-27T03:46:45.578Z,73.99
2022-11-27T03:49:57.181Z,74.32
2022-11-27T03:52:29.003Z,73.67
2022-11-27T03:55:04.598Z,73.61
2022-11-27T03:57:38.133Z,74.25
2022-11-27T04:00:07.634Z,74.35
2022-11-27T04:02:48.767Z,75.72
2022-11-27T04:05:15.780Z,76.70
2022-11-27T04:07:42.834Z,77.35
2022-11-27T04:10:10.955Z,76.05
2022-11-27T04:12:40.155Z,76.03
2022-11-27T04:15:17.183Z,75.63
2022-11-27T04:17:45.626Z,74.72
2022-11-27T04:20:15.683Z,74.11
2022-11-27T04:22:42.290Z,73.15
2022-11-27T04:25:09.267Z,71.82
2022-11-27T04:27:35.805Z,71.83
2022-11-27T04:30:02.428Z,72.32
2022-11-27T04:32:28.959Z,71.85
2022-11-27T04:34:55.467Z,72.39
2022-11-27T04:37:21.965Z,72.15
2022-11-27T04:39:48.419Z,73.32
2022-11-27T04:42:14.883Z,73.11
2022-11-27T04:44:44.213Z,72.19
2022-11-27T04:47:10.699Z,72.19
2022-11-27T04:49:37.147Z,72.79
2022-11-27T04:52:03.798Z,71.57
2022-11-27T04:54:30.252Z,72.29
2022-11-27T04:56:56.722Z,71.56
2022-11-27T04:59:23.350Z,71.61
2022-11-27T05:01:50.231Z,71.65
2022-11-27T05:04:16.751Z,72.05
2022-11-27T05:06:43.257Z,71.93
2022-11-27T05:09:09.755Z,72.05
2022-11-27T05:11:36.263Z,71.36
2022-11-27T05:14:02.789Z,71.90
2022-11-27T05:16:29.328Z,71.60
2022-11-27T05:18:55.830Z,71.48
2022-11-27T05:21:22.346Z,71.64
2022-11-27T05:23:50.766Z,71.53
2022-11-27T05:26:19.696Z,71.50
2022-11-27T05:28:46.194Z,71.39
2022-11-27T05:31:12.700Z,71.50
2022-11-27T05:33:39.295Z,72.27
2022-11-27T05:36:05.917Z,73.23
2022-11-27T05:38:32.506Z,72.39
2022-11-27T05:40:59.317Z,72.50
2022-11-27T05:43:25.843Z,72.25
2022-11-27T05:45:55.540Z,72.81
2022-11-27T05:48:22.030Z,72.55
2022-11-27T05:50:48.512Z,72.38
2022-11-27T05:53:15.176Z,72.64
2022-11-27T05:55:44.214Z,72.75
2022-11-27T05:58:10.742Z,73.60
2022-11-27T06:00:37.279Z,73.91
2022-11-27T06:03:03.918Z,74.60
2022-11-27T06:05:30.546Z,74.42
2022-11-27T06:07:57.097Z,75.65
2022-11-27T06:10:23.786Z,74.37
2022-11-27T06:12:52.510Z,74.55
2022-11-27T06:15:19.050Z,74.25
2022-11-27T06:17:45.575Z,74.65
2022-11-27T06:20:12.200Z,74.39
2022-11-27T06:22:38.649Z,73.73
2022-11-27T06:25:05.543Z,73.85
2022-11-27T06:27:35.812Z,73.21
2022-11-27T06:30:02.740Z,73.19
2022-11-27T06:32:29.711Z,74.12
2022-11-27T06:34:56.181Z,74.22
2022-11-27T06:37:23.110Z,74.30
2022-11-27T06:39:49.943Z,73.90
2022-11-27T06:42:16.510Z,73.57
2022-11-27T06:44:43.218Z,73.83
2022-11-27T06:47:09.834Z,74.03
2022-11-27T06:49:36.362Z,74.29
2022-11-27T06:52:02.867Z,73.58
2022-11-27T06:54:29.333Z,75.40
2022-11-27T06:56:55.799Z,75.03
2022-11-27T06:59:22.294Z,74.79
2022-11-27T07:01:48.837Z,75.34
2022-11-27T07:04:16.213Z,75.25
2022-11-27T07:06:43.177Z,75.21
2022-11-27T07:09:10.225Z,75.13
2022-11-27T07:11:36.838Z,74.86
2022-11-27T07:14:04.933Z,74.95
2022-11-27T07:16:33.509Z,75.27
2022-11-27T07:19:44.126Z,74.31
2022-11-27T07:22:12.892Z,74.26
2022-11-27T07:24:41.979Z,73.82
2022-11-27T07:27:08.600Z,73.74
2022-11-27T07:29:35.084Z,72.61
2022-11-27T07:32:01.789Z,72.00
2022-11-27T07:34:28.291Z,72.55
2022-11-27T07:36:54.749Z,72.26
2022-11-27T07:39:34.089Z,71.36
2022-11-27T07:42:37.597Z,71.07
2022-11-27T07:44:57.552Z,70.49
2022-11-27T07:47:24.019Z,69.50
2022-11-27T07:49:50.491Z,69.44
2022-11-27T07:52:19.522Z,69.63
2022-11-27T07:57:46.865Z,70.32
2022-11-27T08:00:14.685Z,70.48
2022-11-27T08:02:41.216Z,70.88
2022-11-27T08:05:12.411Z,71.46
2022-11-27T08:07:41.165Z,71.99
2022-11-27T08:10:08.419Z,72.31
2022-11-27T08:12:35.029Z,71.43
2022-11-27T08:15:01.479Z,71.55
2022-11-27T08:17:27.936Z,71.37
2022-11-27T08:19:54.434Z,69.91
2022-11-27T08:22:21.066Z,67.14
2022-11-27T08:24:50.631Z,67.11
2022-11-27T08:27:17.613Z,66.84
2022-11-27T08:32:50.968Z,65.72
2022-11-27T08:35:39.126Z,65.83
2022-11-27T08:41:14.330Z,64.69
2022-11-27T08:43:44.078Z,64.91
2022-11-27T08:46:10.854Z,64.85
2022-11-27T08:48:37.486Z,65.00
2022-11-27T08:51:08.869Z,65.25
2022-11-27T08:53:36.287Z,59.79
2022-11-27T08:56:12.191Z,60.94
2022-11-27T08:58:38.665Z,59.47
2022-11-27T09:01:14.894Z,60.30
2022-11-27T09:03:41.838Z,60.50
2022-11-27T09:06:10.416Z,60.58
2022-11-27T09:08:45.951Z,59.75
2022-11-27T09:11:43.538Z,59.04
2022-11-27T09:14:47.829Z,58.42
2022-11-27T09:17:14.486Z,58.67
2022-11-27T09:19:41.101Z,58.58
2022-11-27T09:22:27.203Z,58.63
2022-11-27T09:24:56.062Z,59.21
2022-11-27T09:27:25.610Z,58.81
2022-11-27T09:29:55.317Z,58.67
2022-11-27T09:32:25.081Z,57.59
2022-11-27T09:34:52.235Z,58.72
2022-11-27T09:37:18.983Z,57.80
2022-11-27T09:39:47.918Z,56.52
2022-11-27T09:42:34.648Z,55.98
2022-11-27T09:45:01.596Z,54.80
2022-11-27T09:47:40.985Z,53.96
2022-11-27T09:50:14.023Z,53.98
2022-11-27T09:56:36.477Z,54.40
2022-11-27T09:59:03.990Z,53.73
2022-11-27T10:01:38.563Z,54.40
2022-11-27T10:04:15.543Z,54.63
2022-11-27T10:07:32.020Z,55.60
2022-11-27T10:10:32.020Z,55.01
2022-11-27T10:13:17.247Z,55.25
2022-11-27T10:16:08.331Z,54.53
2022-11-27T10:18:51.192Z,53.57
2022-11-27T10:25:31.944Z,55.19
2022-11-27T10:28:36.207Z,54.95
2022-11-27T10:31:37.620Z,53.94
2022-11-27T10:34:18.627Z,52.46
2022-11-27T10:36:48.931Z,52.92
2022-11-27T10:39:31.634Z,52.00
2022-11-27T10:42:09.398Z,51.75
2022-11-27T10:44:40.019Z,51.91
2022-11-27T10:47:08.884Z,51.68
2022-11-27T10:53:08.412Z,49.99
2022-11-27T10:55:45.977Z,50.12
2022-11-27T10:58:34.319Z,51.53
2022-11-27T11:05:16.146Z,50.71
2022-11-27T11:07:49.619Z,51.26
2022-11-27T11:10:25.520Z,49.67
2022-11-27T11:13:08.975Z,49.60
2022-11-27T11:15:49.989Z,51.42
2022-11-27T11:18:24.644Z,52.56
2022-11-27T11:20:56.266Z,51.93
2022-11-27T11:23:44.227Z,52.25
2022-11-27T11:26:24.890Z,51.92
2022-11-27T11:28:54.395Z,51.82
2022-11-27T11:31:44.258Z,50.97
2022-11-27T11:34:20.044Z,49.80
2022-11-27T11:37:04.983Z,49.02
2022-11-27T11:40:16.717Z,48.84
2022-11-27T11:42:54.884Z,50.48
2022-11-27T11:45:22.483Z,51.14
2022-11-27T11:47:51.794Z,50.82
2022-11-27T11:50:40.322Z,50.13
2022-11-27T11:53:34.678Z,50.13
2022-11-27T11:56:15.319Z,49.27
2022-11-27T11:58:48.475Z,48.46
2022-11-27T12:01:51.199Z,48.10
2022-11-27T12:04:39.846Z,48.07
2022-11-27T12:07:25.144Z,47.60
2022-11-27T12:10:04.060Z,47.52
2022-11-27T12:12:54.970Z,48.90
2022-11-27T12:19:24.095Z,49.00
2022-11-27T12:22:21.540Z,46.93
2022-11-27T12:25:06.708Z,47.56
2022-11-27T12:28:14.705Z,48.74
2022-11-27T12:31:02.594Z,48.42
2022-11-27T12:34:07.306Z,47.41
2022-11-27T12:37:13.715Z,48.03
2022-11-27T12:39:49.842Z,46.41
2022-11-27T12:42:25.746Z,45.92
2022-11-27T12:45:06.714Z,45.96
2022-11-27T12:47:42.874Z,47.06
2022-11-27T12:50:56.866Z,46.37
2022-11-27T12:53:54.368Z,46.67
2022-11-27T12:56:42.027Z,46.75
2022-11-27T12:59:42.423Z,47.02
2022-11-27T13:02:09.184Z,47.99
2022-11-27T13:04:52.176Z,47.26
2022-11-27T13:07:23.037Z,46.01
2022-11-27T13:10:14.027Z,47.78
2022-11-27T13:12:51.943Z,47.58
2022-11-27T13:15:36.132Z,47.31
2022-11-27T13:18:34.979Z,47.75
2022-11-27T13:21:04.839Z,48.50
2022-11-27T13:30:26.477Z,49.06
2022-11-27T13:32:58.071Z,49.50
2022-11-27T13:35:56.824Z,48.51
2022-11-27T13:39:03.255Z,49.05
2022-11-27T13:41:35.121Z,50.32
2022-11-27T13:44:02.467Z,49.42
2022-11-27T13:46:44.369Z,49.59
2022-11-27T13:49:23.748Z,49.06
2022-11-27T13:51:50.468Z,49.88
2022-11-27T13:54:19.003Z,50.64
2022-11-27T13:56:46.343Z,49.84
2022-11-27T13:59:18.106Z,49.94
2022-11-27T14:02:34.923Z,50.59
2022-11-27T14:05:09.574Z,50.20
2022-11-27T14:07:47.640Z,50.22
2022-11-27T14:10:17.743Z,50.74
2022-11-27T14:12:53.464Z,50.81
2022-11-27T14:15:25.777Z,49.81
2022-11-27T14:18:03.573Z,50.45
2022-11-27T14:20:31.815Z,50.15
2022-11-27T14:23:12.697Z,50.97
2022-11-27T14:25:40.896Z,51.07
2022-11-27T14:28:21.213Z,50.23
2022-11-27T14:31:35.955Z,50.66
2022-11-27T14:34:23.151Z,49.36
2022-11-27T14:36:51.852Z,49.86
2022-11-27T14:39:29.933Z,50.64
2022-11-27T14:42:04.444Z,50.18
2022-11-27T14:44:30.969Z,50.83
2022-11-27T14:47:00.383Z,50.60
2022-11-27T14:49:28.601Z,50.72
2022-11-27T14:51:59.410Z,51.21
2022-11-27T14:54:32.359Z,50.72
2022-11-27T14:56:58.895Z,52.08
2022-11-27T14:59:25.499Z,52.23
2022-11-27T15:02:11.844Z,52.17
2022-11-27T15:04:46.817Z,52.42
2022-11-27T15:07:17.003Z,52.22
2022-11-27T15:09:47.309Z,52.76
2022-11-27T15:12:17.656Z,52.15
2022-11-27T15:14:55.390Z,52.80
2022-11-27T15:17:26.268Z,52.22
2022-11-27T15:19:53.208Z,53.50
2022-11-27T15:22:20.076Z,52.53
2022-11-27T15:24:46.636Z,52.84
2022-11-27T15:27:21.523Z,53.54
2022-11-27T15:29:50.670Z,54.21
2022-11-27T15:32:23.771Z,54.52
2022-11-27T15:34:59.626Z,53.82
2022-11-27T15:37:32.933Z,54.36
2022-11-27T15:39:59.867Z,54.27
2022-11-27T15:42:26.359Z,54.67
2022-11-27T15:44:54.403Z,54.01
2022-11-27T15:47:29.749Z,56.14
2022-11-27T15:49:56.501Z,55.49
2022-11-27T15:52:23.480Z,56.16
2022-11-27T15:54:50.799Z,55.72
2022-11-27T15:57:20.281Z,55.46
2022-11-27T15:59:46.891Z,55.32
2022-11-27T16:02:18.089Z,55.60
2022-11-27T16:04:44.936Z,55.32
2022-11-27T16:07:11.694Z,55.68
2022-11-27T16:09:38.227Z,55.18
2022-11-27T16:12:04.910Z,55.43
2022-11-27T16:14:31.421Z,55.54
2022-11-27T16:16:57.961Z,55.57
2022-11-27T16:19:26.556Z,55.33
2022-11-27T16:21:53.112Z,56.32
2022-11-27T16:24:19.658Z,56.95
2022-11-27T16:26:48.817Z,58.57
2022-11-27T16:29:15.442Z,57.09
2022-11-27T16:31:41.993Z,57.53
2022-11-27T16:34:08.583Z,55.68
2022-11-27T16:36:35.178Z,56.51
2022-11-27T16:39:01.639Z,57.54
2022-11-27T16:41:28.186Z,57.45
2022-11-27T16:43:56.724Z,55.91
2022-11-27T16:46:28.764Z,56.19
2022-11-27T16:48:57.438Z,57.33
2022-11-27T16:51:26.143Z,58.04
2022-11-27T16:53:55.233Z,57.29
2022-11-27T16:56:23.809Z,56.49
2022-11-27T16:58:51.178Z,56.43
2022-11-27T17:01:23.055Z,56.48
2022-11-27T17:03:50.020Z,57.44
2022-11-27T17:06:19.422Z,58.48
2022-11-27T17:08:46.073Z,57.75
2022-11-27T17:11:18.275Z,56.94
2022-11-27T17:13:44.901Z,57.29
2022-11-27T17:16:11.593Z,56.86
2022-11-27T17:18:39.762Z,57.64
2022-11-27T17:21:08.991Z,58.08
2022-11-27T17:23:35.914Z,58.71
2022-11-27T17:26:10.090Z,59.11
2022-11-27T17:28:37.082Z,58.60
2022-11-27T17:31:09.338Z,58.26
2022-11-27T17:33:35.941Z,57.49
2022-11-27T17:36:02.794Z,58.52
2022-11-27T17:38:29.282Z,57.65
2022-11-27T17:41:04.952Z,58.65
2022-11-27T17:43:31.429Z,58.84
2022-11-27T17:45:58.573Z,60.27
2022-11-27T17:48:25.727Z,59.57
2022-11-27T17:50:52.728Z,58.11
2022-11-27T17:53:19.597Z,57.72
2022-11-27T17:55:46.264Z,58.13
2022-11-27T17:58:12.747Z,58.15
2022-11-27T18:00:39.366Z,57.91
2022-11-27T18:03:07.539Z,59.70
2022-11-27T18:05:40.043Z,59.53
2022-11-27T18:08:06.919Z,59.13
2022-11-27T18:10:34.314Z,58.92
2022-11-27T18:13:01.142Z,59.02
2022-11-27T18:15:27.656Z,58.90
2022-11-27T18:17:54.142Z,59.43
2022-11-27T18:20:20.658Z,59.27
2022-11-27T18:22:47.164Z,58.77
2022-11-27T18:25:16.605Z,59.40
2022-11-27T18:27:47.403Z,58.75
2022-11-27T18:30:37.133Z,60.36
2022-11-27T18:33:03.706Z,59.97
2022-11-27T18:35:30.239Z,59.83
2022-11-27T18:37:56.694Z,59.48
2022-11-27T18:40:23.272Z,61.11
2022-11-27T18:42:49.775Z,61.22
2022-11-27T18:45:32.396Z,61.06
2022-11-27T18:48:00.997Z,61.33
2022-11-27T18:50:29.854Z,60.26
2022-11-27T18:52:56.609Z,60.34
2022-11-27T18:55:23.162Z,60.05
2022-11-27T18:57:49.681Z,60.05
2022-11-27T19:00:16.511Z,59.75
2022-11-27T19:02:43.102Z,59.81
2022-11-27T19:05:09.578Z,59.33
2022-11-27T19:07:36.208Z,59.65
2022-11-27T19:10:02.739Z,59.02
2022-11-27T19:12:29.246Z,58.47
2022-11-27T19:14:55.714Z,57.80
2022-11-27T19:17:22.228Z,57.87
2022-11-27T19:19:55.931Z,57.69
2022-11-27T19:22:22.544Z,58.15
2022-11-27T19:24:51.827Z,59.32
2022-11-27T19:27:21.450Z,59.90
2022-11-27T19:29:47.963Z,60.57
2022-11-27T19:35:23.524Z,59.89
2022-11-27T19:37:52.950Z,60.43
2022-11-27T19:43:05.650Z,60.55
2022-11-27T19:45:35.812Z,60.44
2022-11-27T19:48:02.496Z,60.37
2022-11-27T19:50:28.955Z,59.48
2022-11-27T19:53:02.747Z,60.02
2022-11-27T19:55:33.795Z,60.51
2022-11-27T19:58:03.726Z,60.13
2022-11-27T20:00:33.486Z,59.81
2022-11-27T20:03:00.099Z,59.35
2022-11-27T20:09:08.520Z,59.12
2022-11-27T20:11:35.321Z,59.16
2022-11-27T20:14:03.236Z,59.52
2022-11-27T20:16:36.432Z,59.96
2022-11-27T20:19:08.751Z,60.42
2022-11-27T20:21:35.505Z,61.17
2022-11-27T20:24:02.047Z,60.44
2022-11-27T20:26:28.849Z,60.30
2022-11-27T20:28:55.355Z,60.36
2022-11-27T20:31:24.964Z,60.74
2022-11-27T20:33:56.556Z,60.83
2022-11-27T20:36:23.624Z,61.37
2022-11-27T20:38:50.551Z,61.42
2022-11-27T20:41:19.508Z,61.27
2022-11-27T20:43:45.993Z,61.65
2022-11-27T20:46:33.100Z,62.20
2022-11-27T20:49:09.418Z,61.56
2022-11-27T20:52:01.797Z,61.82
2022-11-27T20:54:28.260Z,62.00
2022-11-27T20:56:54.777Z,62.05
2022-11-27T21:03:29.941Z,61.86
2022-11-27T21:05:56.421Z,62.07
2022-11-27T21:09:01.423Z,61.74
2022-11-27T21:11:29.548Z,62.13
2022-11-27T21:14:54.856Z,61.71
2022-11-27T21:17:30.332Z,61.92
2022-11-27T21:20:47.499Z,61.69
2022-11-27T21:23:32.065Z,61.88
2022-11-27T21:26:14.520Z,61.91
2022-11-27T21:31:47.845Z,61.67
2022-11-27T21:34:24.204Z,62.74
2022-11-27T21:36:59.617Z,62.68
2022-11-27T21:39:46.178Z,61.91
2022-11-27T21:48:58.114Z,62.75
2022-11-27T21:51:31.560Z,62.56
2022-11-27T21:53:59.856Z,63.03
2022-11-27T21:57:05.878Z,63.47
2022-11-27T22:03:53.392Z,63.23
2022-11-27T22:06:28.169Z,63.59
2022-11-27T22:08:56.763Z,63.88
2022-11-27T22:11:33.397Z,63.75
2022-11-27T22:14:04.984Z,64.35
2022-11-27T22:16:34.435Z,65.27
2022-11-27T22:31:10.725Z,65.76
2022-11-27T22:33:37.954Z,65.74
2022-11-27T22:36:45.307Z,64.77
2022-11-27T22:39:11.868Z,64.92
2022-11-27T22:46:08.732Z,65.51
2022-11-27T22:48:49.419Z,65.71
2022-11-27T22:51:18.743Z,65.42
2022-11-27T22:53:51.416Z,65.62
2022-11-27T22:56:28.433Z,65.72
2022-11-27T22:59:11.401Z,65.83
2022-11-27T23:02:04.361Z,65.00
2022-11-27T23:05:43.589Z,65.96
2022-11-27T23:08:10.880Z,66.51
2022-11-27T23:10:38.364Z,66.48
2022-11-27T23:13:05.407Z,66.28
2022-11-27T23:15:32.358Z,67.30
2022-11-27T23:18:04.633Z,67.12
2022-11-27T23:27:00.437Z,67.14
2022-11-27T23:29:39.216Z,67.55
2022-11-27T23:32:17.901Z,67.75
2022-11-27T23:34:44.602Z,67.87
2022-11-27T23:37:11.121Z,68.90
2022-11-27T23:39:38.407Z,68.31
2022-11-27T23:42:04.964Z,69.08
2022-11-27T23:44:31.533Z,69.24
2022-11-27T23:46:58.025Z,68.81
2022-11-27T23:49:27.631Z,68.90
2022-11-27T23:51:54.187Z,69.85
2022-11-27T23:54:20.653Z,70.26
2022-11-27T23:56:50.941Z,70.05
2022-11-27T23:59:17.352Z,69.78
